EVA0457 VHHX-RCTP
Flight info
| Callsign | EVA0457 |
|---|---|
| Flight time | 1h 9m |
| Altitude | 39000 |
| Route | ENVAR M750 EXTRA/N0487F290 M750 TONGA TONGA1A |
| Aircraft | B77W/H-SDE1E2E3FGHIJ2J3J4J5M1RWXY/LB1D1 |
Departure
| Time | 2026-05-07 15:13 |
|---|---|
| Airport | Hong Kong International Airport Kai Tak (VHHX) |
Arrival
| Time | 2026-05-07 16:23 |
|---|---|
| Airport | Taiwan Taoyuan International Airport (RCTP) |
| Time | Latitude | Longitude | Altitude | Speed | Heading |
|---|---|---|---|---|---|
| 2026-05-07 14:51 | 22.32648 | 114.19354 | 42 ft | 0 kts | 314° |
| 2026-05-07 15:03 | 22.32638 | 114.19367 | 41 ft | 2 kts | 309° |
| 2026-05-07 15:03 | 22.32629 | 114.19381 | 39 ft | 2 kts | 298° |
| 2026-05-07 15:03 | 22.32622 | 114.19398 | 41 ft | 2 kts | 284° |
| 2026-05-07 15:04 | 22.32620 | 114.19415 | 41 ft | 2 kts | 261° |
| 2026-05-07 15:04 | 22.32625 | 114.19432 | 37 ft | 2 kts | 238° |
| 2026-05-07 15:04 | 22.32633 | 114.19444 | 36 ft | 1 kts | 224° |
| 2026-05-07 15:04 | 22.32635 | 114.19445 | 38 ft | 0 kts | 224° |
| 2026-05-07 15:06 | 22.32634 | 114.19444 | 36 ft | 1 kts | 224° |
| 2026-05-07 15:06 | 22.32605 | 114.19416 | 38 ft | 10 kts | 218° |
| 2026-05-07 15:06 | 22.32544 | 114.19430 | 41 ft | 10 kts | 143° |
| 2026-05-07 15:07 | 22.32489 | 114.19480 | 42 ft | 11 kts | 139° |
| 2026-05-07 15:07 | 22.32433 | 114.19535 | 41 ft | 11 kts | 138° |
| 2026-05-07 15:07 | 22.32375 | 114.19590 | 41 ft | 11 kts | 138° |
| 2026-05-07 15:07 | 22.32318 | 114.19648 | 41 ft | 11 kts | 136° |
| 2026-05-07 15:08 | 22.32262 | 114.19709 | 40 ft | 12 kts | 134° |
| 2026-05-07 15:08 | 22.32176 | 114.19804 | 41 ft | 26 kts | 134° |
| 2026-05-07 15:08 | 22.32013 | 114.19984 | 41 ft | 41 kts | 133° |
| 2026-05-07 15:08 | 22.31817 | 114.20205 | 41 ft | 40 kts | 134° |
| 2026-05-07 15:09 | 22.31628 | 114.20417 | 40 ft | 38 kts | 133° |
| 2026-05-07 15:09 | 22.31449 | 114.20617 | 40 ft | 37 kts | 134° |
| 2026-05-07 15:09 | 22.31276 | 114.20811 | 40 ft | 35 kts | 133° |
| 2026-05-07 15:09 | 22.31109 | 114.20999 | 40 ft | 34 kts | 135° |
| 2026-05-07 15:10 | 22.30945 | 114.21181 | 41 ft | 33 kts | 132° |
| 2026-05-07 15:10 | 22.30799 | 114.21360 | 41 ft | 31 kts | 133° |
| 2026-05-07 15:10 | 22.30649 | 114.21527 | 41 ft | 30 kts | 134° |
| 2026-05-07 15:10 | 22.30522 | 114.21669 | 41 ft | 14 kts | 134° |
| 2026-05-07 15:11 | 22.30436 | 114.21660 | 41 ft | 14 kts | 229° |
| 2026-05-07 15:11 | 22.30464 | 114.21566 | 41 ft | 15 kts | 311° |
| 2026-05-07 15:11 | 22.30513 | 114.21511 | 41 ft | 0 kts | 314° |
| 2026-05-07 15:12 | 22.30515 | 114.21509 | 41 ft | 5 kts | 314° |
| 2026-05-07 15:12 | 22.30647 | 114.21362 | 41 ft | 58 kts | 314° |
| 2026-05-07 15:12 | 22.31142 | 114.20809 | 41 ft | 149 kts | 314° |
| 2026-05-07 15:13 | 22.32026 | 114.19824 | 397 ft | 201 kts | 315° |
| 2026-05-07 15:13 | 22.32968 | 114.18703 | 1428 ft | 199 kts | 305° |
| 2026-05-07 15:13 | 22.33530 | 114.17325 | 2133 ft | 208 kts | 276° |
| 2026-05-07 15:13 | 22.33378 | 114.15720 | 2606 ft | 230 kts | 247° |
| 2026-05-07 15:14 | 22.32638 | 114.14062 | 2940 ft | 257 kts | 244° |
| 2026-05-07 15:14 | 22.31900 | 114.12292 | 3822 ft | 264 kts | 244° |
| 2026-05-07 15:14 | 22.31103 | 114.10469 | 4805 ft | 270 kts | 245° |
| 2026-05-07 15:14 | 22.30332 | 114.08614 | 5851 ft | 271 kts | 246° |
| 2026-05-07 15:15 | 22.29535 | 114.06774 | 6807 ft | 272 kts | 237° |
| 2026-05-07 15:15 | 22.28156 | 114.05358 | 7613 ft | 279 kts | 210° |
| 2026-05-07 15:15 | 22.26323 | 114.04695 | 8452 ft | 284 kts | 187° |
| 2026-05-07 15:15 | 22.24342 | 114.04493 | 8958 ft | 288 kts | 197° |
| 2026-05-07 15:16 | 22.22472 | 114.03769 | 9018 ft | 287 kts | 196° |
| 2026-05-07 15:16 | 22.20465 | 114.03770 | 9032 ft | 296 kts | 164° |
| 2026-05-07 15:16 | 22.18599 | 114.04729 | 9045 ft | 297 kts | 153° |
| 2026-05-07 15:16 | 22.16802 | 114.05809 | 9565 ft | 301 kts | 152° |
| 2026-05-07 15:17 | 22.14954 | 114.06919 | 10460 ft | 305 kts | 153° |
| 2026-05-07 15:17 | 22.13057 | 114.08045 | 10897 ft | 328 kts | 153° |
| 2026-05-07 15:17 | 22.10944 | 114.09282 | 11118 ft | 359 kts | 153° |
| 2026-05-07 15:17 | 22.08669 | 114.10602 | 11574 ft | 379 kts | 153° |
| 2026-05-07 15:18 | 22.06304 | 114.11968 | 12406 ft | 389 kts | 153° |
| 2026-05-07 15:18 | 22.03915 | 114.13343 | 13341 ft | 395 kts | 153° |
| 2026-05-07 15:18 | 22.01470 | 114.14746 | 14262 ft | 401 kts | 154° |
| 2026-05-07 15:18 | 21.98983 | 114.16171 | 15117 ft | 406 kts | 154° |
| 2026-05-07 15:19 | 21.96489 | 114.17598 | 15936 ft | 412 kts | 154° |
| 2026-05-07 15:19 | 21.93933 | 114.19060 | 16765 ft | 418 kts | 154° |
| 2026-05-07 15:19 | 21.91340 | 114.20543 | 17560 ft | 424 kts | 154° |
| 2026-05-07 15:19 | 21.88790 | 114.22195 | 18203 ft | 431 kts | 142° |
| 2026-05-07 15:20 | 21.86821 | 114.24626 | 18754 ft | 444 kts | 121° |
| 2026-05-07 15:20 | 21.85643 | 114.27720 | 19468 ft | 449 kts | 104° |
| 2026-05-07 15:20 | 21.85344 | 114.31070 | 20184 ft | 449 kts | 88° |
| 2026-05-07 15:20 | 21.85525 | 114.34466 | 20718 ft | 458 kts | 85° |
| 2026-05-07 15:21 | 21.85755 | 114.37883 | 21355 ft | 463 kts | 85° |
| 2026-05-07 15:21 | 21.85988 | 114.41365 | 22108 ft | 466 kts | 85° |
| 2026-05-07 15:21 | 21.86202 | 114.44866 | 22828 ft | 470 kts | 85° |
| 2026-05-07 15:21 | 21.86397 | 114.48412 | 23490 ft | 475 kts | 85° |
| 2026-05-07 15:22 | 21.86577 | 114.51943 | 24017 ft | 480 kts | 86° |
| 2026-05-07 15:22 | 21.86753 | 114.55567 | 24566 ft | 484 kts | 86° |
| 2026-05-07 15:22 | 21.86927 | 114.59201 | 25131 ft | 487 kts | 86° |
| 2026-05-07 15:22 | 21.87101 | 114.62822 | 25680 ft | 491 kts | 86° |
| 2026-05-07 15:23 | 21.87280 | 114.66518 | 26207 ft | 494 kts | 86° |
| 2026-05-07 15:23 | 21.87459 | 114.70235 | 26725 ft | 498 kts | 86° |
| 2026-05-07 15:23 | 21.87641 | 114.73994 | 27226 ft | 502 kts | 86° |
| 2026-05-07 15:23 | 21.87821 | 114.77722 | 27715 ft | 506 kts | 86° |
| 2026-05-07 15:24 | 21.88004 | 114.81522 | 28200 ft | 509 kts | 86° |
| 2026-05-07 15:24 | 21.88188 | 114.85348 | 28680 ft | 513 kts | 86° |
| 2026-05-07 15:24 | 21.88374 | 114.89203 | 29135 ft | 516 kts | 86° |
| 2026-05-07 15:24 | 21.88565 | 114.93084 | 29564 ft | 520 kts | 86° |
| 2026-05-07 15:25 | 21.88758 | 114.96990 | 29970 ft | 523 kts | 86° |
| 2026-05-07 15:25 | 21.88951 | 115.00917 | 30296 ft | 526 kts | 86° |
| 2026-05-07 15:25 | 21.89142 | 115.04815 | 30646 ft | 528 kts | 86° |
| 2026-05-07 15:25 | 21.89333 | 115.08760 | 31102 ft | 527 kts | 86° |
| 2026-05-07 15:26 | 21.89523 | 115.12709 | 31618 ft | 524 kts | 86° |
| 2026-05-07 15:26 | 21.89711 | 115.16640 | 32145 ft | 522 kts | 86° |
| 2026-05-07 15:26 | 21.89894 | 115.20491 | 32660 ft | 520 kts | 86° |
| 2026-05-07 15:26 | 21.90079 | 115.24385 | 33169 ft | 519 kts | 86° |
| 2026-05-07 15:27 | 21.90262 | 115.28271 | 33657 ft | 518 kts | 86° |
| 2026-05-07 15:27 | 21.90444 | 115.32154 | 34153 ft | 516 kts | 85° |
| 2026-05-07 15:27 | 21.90622 | 115.35964 | 34571 ft | 515 kts | 85° |
| 2026-05-07 15:27 | 21.90801 | 115.39828 | 34931 ft | 515 kts | 85° |
| 2026-05-07 15:28 | 21.90981 | 115.43703 | 35304 ft | 516 kts | 85° |
| 2026-05-07 15:28 | 21.91158 | 115.47555 | 35673 ft | 515 kts | 85° |
| 2026-05-07 15:28 | 21.91334 | 115.51404 | 36055 ft | 515 kts | 85° |
| 2026-05-07 15:28 | 21.91510 | 115.55259 | 36420 ft | 515 kts | 85° |
| 2026-05-07 15:29 | 21.91682 | 115.59069 | 36766 ft | 515 kts | 85° |
| 2026-05-07 15:29 | 21.91857 | 115.62943 | 37120 ft | 515 kts | 85° |
| 2026-05-07 15:29 | 21.92030 | 115.66805 | 37468 ft | 515 kts | 85° |
| 2026-05-07 15:29 | 21.92200 | 115.70620 | 37800 ft | 515 kts | 85° |
| 2026-05-07 15:30 | 21.92372 | 115.74496 | 38127 ft | 516 kts | 85° |
| 2026-05-07 15:30 | 21.92542 | 115.78351 | 38468 ft | 515 kts | 85° |
| 2026-05-07 15:30 | 21.92712 | 115.82219 | 38757 ft | 515 kts | 85° |
| 2026-05-07 15:30 | 21.92881 | 115.86086 | 38895 ft | 519 kts | 85° |
| 2026-05-07 15:31 | 21.93217 | 115.93835 | 38964 ft | 520 kts | 85° |
| 2026-05-07 15:31 | 21.93548 | 116.01590 | 38961 ft | 514 kts | 85° |
| 2026-05-07 15:32 | 21.93873 | 116.09277 | 38949 ft | 512 kts | 85° |
| 2026-05-07 15:32 | 21.94192 | 116.16900 | 38961 ft | 511 kts | 85° |
| 2026-05-07 15:33 | 21.94508 | 116.24509 | 38961 ft | 511 kts | 85° |
| 2026-05-07 15:33 | 21.94822 | 116.32172 | 38953 ft | 511 kts | 85° |
| 2026-05-07 15:34 | 21.95134 | 116.39859 | 38968 ft | 512 kts | 85° |
| 2026-05-07 15:34 | 21.95439 | 116.47490 | 38956 ft | 513 kts | 85° |
| 2026-05-07 15:35 | 21.95744 | 116.55184 | 38954 ft | 513 kts | 85° |
| 2026-05-07 15:35 | 21.96044 | 116.62881 | 38946 ft | 514 kts | 85° |
| 2026-05-07 15:36 | 21.96340 | 116.70538 | 38953 ft | 514 kts | 85° |
| 2026-05-07 15:36 | 21.96634 | 116.78238 | 38948 ft | 514 kts | 85° |
| 2026-05-07 15:37 | 21.96875 | 116.84632 | 38954 ft | 514 kts | 85° |
| 2026-05-07 15:37 | 21.97163 | 116.92335 | 38952 ft | 514 kts | 85° |
| 2026-05-07 15:38 | 21.97446 | 117.00040 | 38952 ft | 514 kts | 85° |
| 2026-05-07 15:38 | 21.97725 | 117.07697 | 38961 ft | 514 kts | 85° |
| 2026-05-07 15:39 | 21.98002 | 117.15404 | 38945 ft | 514 kts | 85° |
| 2026-05-07 15:39 | 21.98275 | 117.23102 | 38946 ft | 514 kts | 85° |
| 2026-05-07 15:40 | 21.98542 | 117.30757 | 38960 ft | 514 kts | 85° |
| 2026-05-07 15:40 | 21.98809 | 117.38486 | 38960 ft | 515 kts | 85° |
| 2026-05-07 15:41 | 21.99074 | 117.46205 | 38947 ft | 514 kts | 84° |
| 2026-05-07 15:41 | 21.99557 | 117.49992 | 38960 ft | 507 kts | 71° |
| 2026-05-07 15:41 | 22.00882 | 117.53464 | 38937 ft | 495 kts | 54° |
| 2026-05-07 15:42 | 22.04558 | 117.59673 | 38947 ft | 496 kts | 52° |
| 2026-05-07 15:42 | 22.08260 | 117.65998 | 38951 ft | 500 kts | 53° |
| 2026-05-07 15:43 | 22.11914 | 117.72425 | 38956 ft | 503 kts | 54° |
| 2026-05-07 15:43 | 22.15547 | 117.78879 | 38957 ft | 505 kts | 54° |
| 2026-05-07 15:44 | 22.19203 | 117.85376 | 38956 ft | 505 kts | 54° |
| 2026-05-07 15:44 | 22.22836 | 117.91827 | 38955 ft | 504 kts | 54° |
| 2026-05-07 15:45 | 22.26475 | 117.98297 | 38952 ft | 502 kts | 54° |
| 2026-05-07 15:45 | 22.30149 | 118.04721 | 38951 ft | 499 kts | 52° |
| 2026-05-07 15:46 | 22.35724 | 118.14178 | 38948 ft | 497 kts | 52° |
| 2026-05-07 15:47 | 22.39403 | 118.20471 | 38954 ft | 496 kts | 52° |
| 2026-05-07 15:47 | 22.43022 | 118.26774 | 38950 ft | 496 kts | 53° |
| 2026-05-07 15:48 | 22.46632 | 118.33182 | 38953 ft | 497 kts | 53° |
| 2026-05-07 15:48 | 22.50221 | 118.39546 | 38950 ft | 498 kts | 53° |
| 2026-05-07 15:49 | 22.53840 | 118.45952 | 38957 ft | 499 kts | 53° |
| 2026-05-07 15:49 | 22.57470 | 118.52380 | 38955 ft | 500 kts | 53° |
| 2026-05-07 15:50 | 22.61117 | 118.58780 | 38950 ft | 501 kts | 53° |
| 2026-05-07 15:50 | 22.64776 | 118.65180 | 38951 ft | 502 kts | 53° |
| 2026-05-07 15:51 | 22.68460 | 118.71641 | 38953 ft | 503 kts | 53° |
| 2026-05-07 15:51 | 22.72125 | 118.78085 | 38951 ft | 504 kts | 53° |
| 2026-05-07 15:52 | 22.75793 | 118.84545 | 38952 ft | 504 kts | 53° |
| 2026-05-07 15:52 | 22.79477 | 118.91041 | 38952 ft | 504 kts | 53° |
| 2026-05-07 15:53 | 22.83127 | 118.97485 | 38952 ft | 504 kts | 53° |
| 2026-05-07 15:53 | 22.86800 | 119.03976 | 38950 ft | 504 kts | 53° |
| 2026-05-07 15:54 | 22.90451 | 119.10437 | 38954 ft | 503 kts | 53° |
| 2026-05-07 15:54 | 22.94094 | 119.16892 | 38951 ft | 503 kts | 53° |
| 2026-05-07 15:55 | 22.97760 | 119.23396 | 38947 ft | 503 kts | 53° |
| 2026-05-07 15:55 | 23.01388 | 119.29841 | 38950 ft | 503 kts | 53° |
| 2026-05-07 15:56 | 23.05047 | 119.36348 | 38952 ft | 502 kts | 53° |
| 2026-05-07 15:56 | 23.08673 | 119.42806 | 38950 ft | 502 kts | 53° |
| 2026-05-07 15:57 | 23.12300 | 119.49275 | 38949 ft | 502 kts | 53° |
| 2026-05-07 15:57 | 23.15922 | 119.55741 | 38951 ft | 502 kts | 53° |
| 2026-05-07 15:57 | 23.17960 | 119.58792 | 38943 ft | 490 kts | 40° |
| 2026-05-07 15:58 | 23.20518 | 119.61084 | 38943 ft | 473 kts | 24° |
| 2026-05-07 15:58 | 23.26265 | 119.64533 | 38963 ft | 472 kts | 22° |
| 2026-05-07 15:59 | 23.32030 | 119.68065 | 38968 ft | 476 kts | 24° |
| 2026-05-07 15:59 | 23.37763 | 119.71680 | 38970 ft | 479 kts | 24° |
| 2026-05-07 16:00 | 23.43517 | 119.75328 | 38970 ft | 480 kts | 24° |
| 2026-05-07 16:00 | 23.49301 | 119.79000 | 38770 ft | 484 kts | 25° |
| 2026-05-07 16:00 | 23.52180 | 119.80921 | 37905 ft | 489 kts | 26° |
| 2026-05-07 16:01 | 23.55056 | 119.82911 | 37142 ft | 488 kts | 27° |
| 2026-05-07 16:01 | 23.57919 | 119.84917 | 36385 ft | 488 kts | 27° |
| 2026-05-07 16:01 | 23.60779 | 119.86921 | 35595 ft | 489 kts | 28° |
| 2026-05-07 16:01 | 23.63655 | 119.88925 | 34687 ft | 493 kts | 28° |
| 2026-05-07 16:02 | 23.66564 | 119.90941 | 33734 ft | 497 kts | 28° |
| 2026-05-07 16:02 | 23.69497 | 119.92967 | 32880 ft | 498 kts | 29° |
| 2026-05-07 16:02 | 23.72393 | 119.94968 | 32208 ft | 495 kts | 29° |
| 2026-05-07 16:02 | 23.75308 | 119.96981 | 31550 ft | 493 kts | 29° |
| 2026-05-07 16:03 | 23.78208 | 119.98984 | 30910 ft | 491 kts | 29° |
| 2026-05-07 16:03 | 23.81060 | 120.00955 | 30275 ft | 489 kts | 30° |
| 2026-05-07 16:03 | 23.83938 | 120.02945 | 29577 ft | 488 kts | 30° |
| 2026-05-07 16:03 | 23.86810 | 120.04933 | 28890 ft | 485 kts | 30° |
| 2026-05-07 16:04 | 23.89634 | 120.06888 | 28230 ft | 483 kts | 30° |
| 2026-05-07 16:04 | 23.92468 | 120.08851 | 27592 ft | 479 kts | 30° |
| 2026-05-07 16:04 | 23.95285 | 120.10804 | 26964 ft | 476 kts | 30° |
| 2026-05-07 16:04 | 23.98082 | 120.12744 | 26348 ft | 474 kts | 30° |
| 2026-05-07 16:05 | 24.00864 | 120.14674 | 25727 ft | 471 kts | 30° |
| 2026-05-07 16:05 | 24.03605 | 120.16577 | 25103 ft | 469 kts | 30° |
| 2026-05-07 16:05 | 24.06363 | 120.18492 | 24474 ft | 467 kts | 30° |
| 2026-05-07 16:05 | 24.09104 | 120.20397 | 23866 ft | 465 kts | 30° |
| 2026-05-07 16:06 | 24.11810 | 120.22278 | 23198 ft | 463 kts | 30° |
| 2026-05-07 16:06 | 24.14532 | 120.24171 | 22519 ft | 460 kts | 30° |
| 2026-05-07 16:06 | 24.17223 | 120.26043 | 21899 ft | 456 kts | 30° |
| 2026-05-07 16:06 | 24.19906 | 120.27912 | 21303 ft | 452 kts | 30° |
| 2026-05-07 16:07 | 24.22541 | 120.29748 | 20719 ft | 449 kts | 30° |
| 2026-05-07 16:07 | 24.25140 | 120.31560 | 20148 ft | 445 kts | 30° |
| 2026-05-07 16:07 | 24.27755 | 120.33383 | 19563 ft | 442 kts | 30° |
| 2026-05-07 16:07 | 24.30365 | 120.35204 | 18960 ft | 440 kts | 30° |
| 2026-05-07 16:08 | 24.32907 | 120.36978 | 18385 ft | 438 kts | 30° |
| 2026-05-07 16:08 | 24.35481 | 120.38776 | 17723 ft | 436 kts | 30° |
| 2026-05-07 16:08 | 24.38034 | 120.40560 | 17117 ft | 432 kts | 30° |
| 2026-05-07 16:08 | 24.40565 | 120.42330 | 16524 ft | 429 kts | 30° |
| 2026-05-07 16:09 | 24.43045 | 120.44065 | 15953 ft | 425 kts | 30° |
| 2026-05-07 16:09 | 24.45538 | 120.45810 | 15377 ft | 422 kts | 30° |
| 2026-05-07 16:09 | 24.48016 | 120.47545 | 14820 ft | 419 kts | 30° |
| 2026-05-07 16:09 | 24.50475 | 120.49267 | 14227 ft | 417 kts | 30° |
| 2026-05-07 16:10 | 24.52887 | 120.50958 | 13640 ft | 415 kts | 30° |
| 2026-05-07 16:10 | 24.55319 | 120.52662 | 13058 ft | 411 kts | 31° |
| 2026-05-07 16:10 | 24.57726 | 120.54351 | 12476 ft | 408 kts | 31° |
| 2026-05-07 16:10 | 24.60114 | 120.56027 | 11920 ft | 405 kts | 31° |
| 2026-05-07 16:11 | 24.62454 | 120.57670 | 11379 ft | 402 kts | 31° |
| 2026-05-07 16:11 | 24.64799 | 120.59317 | 10862 ft | 398 kts | 31° |
| 2026-05-07 16:11 | 24.67122 | 120.60951 | 10619 ft | 386 kts | 32° |
| 2026-05-07 16:11 | 24.69212 | 120.62658 | 10520 ft | 370 kts | 39° |
| 2026-05-07 16:12 | 24.71106 | 120.64513 | 10419 ft | 356 kts | 41° |
| 2026-05-07 16:12 | 24.72886 | 120.66346 | 10323 ft | 343 kts | 42° |
| 2026-05-07 16:12 | 24.74581 | 120.68088 | 10253 ft | 331 kts | 41° |
| 2026-05-07 16:12 | 24.76245 | 120.69774 | 10173 ft | 315 kts | 41° |
| 2026-05-07 16:13 | 24.77820 | 120.71351 | 9810 ft | 296 kts | 41° |
| 2026-05-07 16:13 | 24.79317 | 120.72838 | 9137 ft | 290 kts | 41° |
| 2026-05-07 16:13 | 24.80826 | 120.74328 | 8689 ft | 288 kts | 41° |
| 2026-05-07 16:13 | 24.82314 | 120.75796 | 8351 ft | 289 kts | 41° |
| 2026-05-07 16:14 | 24.83817 | 120.77278 | 8017 ft | 289 kts | 41° |
| 2026-05-07 16:14 | 24.85320 | 120.78759 | 7681 ft | 289 kts | 41° |
| 2026-05-07 16:14 | 24.86174 | 120.79600 | 7492 ft | 289 kts | 41° |
| 2026-05-07 16:14 | 24.87461 | 120.80868 | 7259 ft | 325 kts | 41° |
| 2026-05-07 16:15 | 24.89170 | 120.82552 | 6887 ft | 323 kts | 41° |
| 2026-05-07 16:15 | 24.90750 | 120.84255 | 6229 ft | 309 kts | 54° |
| 2026-05-07 16:15 | 24.91627 | 120.86328 | 5662 ft | 292 kts | 78° |
| 2026-05-07 16:15 | 24.91798 | 120.88456 | 5279 ft | 270 kts | 95° |
| 2026-05-07 16:16 | 24.91680 | 120.90540 | 5349 ft | 277 kts | 96° |
| 2026-05-07 16:16 | 24.91557 | 120.92686 | 5157 ft | 283 kts | 95° |
| 2026-05-07 16:16 | 24.91440 | 120.94847 | 4987 ft | 277 kts | 95° |
| 2026-05-07 16:16 | 24.91332 | 120.96918 | 4855 ft | 270 kts | 95° |
| 2026-05-07 16:17 | 24.91228 | 120.98960 | 4731 ft | 262 kts | 95° |
| 2026-05-07 16:17 | 24.91128 | 121.00934 | 4604 ft | 254 kts | 95° |
| 2026-05-07 16:17 | 24.91281 | 121.02821 | 4338 ft | 249 kts | 69° |
| 2026-05-07 16:17 | 24.92142 | 121.04440 | 4150 ft | 242 kts | 54° |
| 2026-05-07 16:18 | 24.93189 | 121.05900 | 3847 ft | 243 kts | 50° |
| 2026-05-07 16:18 | 24.94277 | 121.07294 | 3525 ft | 235 kts | 49° |
| 2026-05-07 16:18 | 24.95341 | 121.08640 | 3263 ft | 230 kts | 49° |
| 2026-05-07 16:18 | 24.96377 | 121.09956 | 2978 ft | 230 kts | 49° |
| 2026-05-07 16:19 | 24.97413 | 121.11275 | 2673 ft | 220 kts | 49° |
| 2026-05-07 16:19 | 24.98361 | 121.12484 | 2371 ft | 200 kts | 49° |
| 2026-05-07 16:19 | 24.99224 | 121.13584 | 2154 ft | 179 kts | 50° |
| 2026-05-07 16:19 | 25.00002 | 121.14576 | 1914 ft | 164 kts | 50° |
| 2026-05-07 16:20 | 25.00710 | 121.15479 | 1704 ft | 147 kts | 50° |
| 2026-05-07 16:20 | 25.01379 | 121.16332 | 1569 ft | 149 kts | 50° |
| 2026-05-07 16:20 | 25.02055 | 121.17195 | 1346 ft | 148 kts | 50° |
| 2026-05-07 16:20 | 25.02730 | 121.18057 | 1115 ft | 147 kts | 51° |
| 2026-05-07 16:21 | 25.03374 | 121.18915 | 944 ft | 145 kts | 52° |
| 2026-05-07 16:21 | 25.04026 | 121.19775 | 778 ft | 147 kts | 50° |
| 2026-05-07 16:21 | 25.04466 | 121.20338 | 656 ft | 144 kts | 49° |
| 2026-05-07 16:21 | 25.05338 | 121.21413 | 375 ft | 138 kts | 50° |
| 2026-05-07 16:22 | 25.05767 | 121.21951 | 249 ft | 139 kts | 50° |
| 2026-05-07 16:22 | 25.06399 | 121.22751 | 104 ft | 135 kts | 50° |
| 2026-05-07 16:22 | 25.06955 | 121.23458 | 103 ft | 105 kts | 49° |
| 2026-05-07 16:22 | 25.07354 | 121.23960 | 100 ft | 70 kts | 49° |
| 2026-05-07 16:23 | 25.07599 | 121.24272 | 101 ft | 45 kts | 49° |
| 2026-05-07 16:23 | 25.07772 | 121.24489 | 100 ft | 24 kts | 49° |
| 2026-05-07 16:23 | 25.07831 | 121.24563 | 98 ft | 11 kts | 45° |
| 2026-05-07 16:23 | 25.07882 | 121.24589 | 98 ft | 6 kts | 6° |
| 2026-05-07 16:24 | 25.07932 | 121.24571 | 97 ft | 10 kts | 330° |
| 2026-05-07 16:24 | 25.07962 | 121.24546 | 95 ft | 0 kts | 322° |
| 2026-05-07 16:25 | 25.07963 | 121.24546 | 95 ft | 1 kts | 322° |
| 2026-05-07 16:25 | 25.07985 | 121.24526 | 94 ft | 7 kts | 321° |
| 2026-05-07 16:25 | 25.08034 | 121.24480 | 92 ft | 11 kts | 319° |
| 2026-05-07 16:25 | 25.08099 | 121.24419 | 90 ft | 13 kts | 321° |
| 2026-05-07 16:26 | 25.08139 | 121.24361 | 89 ft | 7 kts | 279° |
| 2026-05-07 16:26 | 25.08122 | 121.24307 | 91 ft | 8 kts | 238° |
| 2026-05-07 16:26 | 25.08085 | 121.24255 | 88 ft | 9 kts | 229° |
| 2026-05-07 16:26 | 25.08042 | 121.24200 | 90 ft | 10 kts | 229° |
| 2026-05-07 16:27 | 25.07994 | 121.24139 | 89 ft | 11 kts | 230° |
| 2026-05-07 16:27 | 25.07942 | 121.24072 | 91 ft | 12 kts | 229° |
| 2026-05-07 16:27 | 25.07910 | 121.24030 | 90 ft | 5 kts | 238° |
| 2026-05-07 16:27 | 25.07911 | 121.23994 | 88 ft | 5 kts | 292° |
| 2026-05-07 16:28 | 25.07937 | 121.23959 | 91 ft | 7 kts | 314° |
| 2026-05-07 16:28 | 25.07961 | 121.23934 | 89 ft | 5 kts | 318° |
| 2026-05-07 16:28 | 25.07970 | 121.23925 | 90 ft | 1 kts | 319° |
| 2026-05-07 16:28 | 25.07972 | 121.23924 | 90 ft | 0 kts | 319° |
| 2026-05-07 16:29 | 24.99459 | 121.13884 | 2091 ft | 174 kts | 49° |
| 2026-05-07 16:29 | 25.04713 | 121.20634 | 562 ft | 144 kts | 48° |